Patensie, South Africa

12:27 AM SAST on September 30, 2016 (GMT +0200)
Wavecrest | | Change Station

Elev 236 ft 34.03 °S, 24.92 °E | Updated 12 seconds ago

Clear
Clear
56.3 °F
Feels Like 56.3 °F
N
4.5
Wind Variable Wind from NNW
Gusts 4.9 mph

Today
High -- | Low -- °F
--% Chance of Precip.
Yesterday
High -- | Low -- °F
Precip. -- in
Pressure 30.21 in
Visibility -9999.0 miles
Clouds
Dew Point 48 °F
Humidity 74%
Rainfall 0.00 in
Snow Depth Not available.
5:58 AM 6:22 PM
Waning Crescent, 1% visible
METAR FAPE 292200Z 29009KT CAVOK 13/10 Q1023 NOSIG
Pressure 30.21 in
Visibility -9999.0 miles
Clouds
Dew Point 48 °F
Humidity 74%
Rainfall 0.00 in
Snow Depth Not available.
5:58 AM 6:22 PM
Waning Crescent, 1% visible
METAR FAPE 292200Z 29009KT CAVOK 13/10 Q1023 NOSIG

10-Day Weather Forecast

No radar image for this location.
×

Almanac

Astronomy

Sep. 30, 2016 Rise Set
Actual Time
Civil Twilight
Nautical Twilight
Astronomical Twilight
Moon
Length of Visible Light
Length of Day
Tomorrow will be .
, % of the Moon is Illuminated

Today's Extremes

Country Highs Country Lows

Community

WunderPhotos

Upload Photos

1,942,591 photos uploaded!

WunderBlog® & News

Nearby

Air Quality

  Air Quality AQ Index Pollutant
Not available.

Snow Depth

Station Depth Elevation

Earthquake Activity

City Distance Mag. Time & Date
Minimum magnitude displayed is 2.5.

Coastal Water Temperatures

Place Temperature

Stations

Nearby Weather Stations

Station Location Temp. Windchill Dew Point Humidity Wind Precip. Elev Updated Type